createdAt,value
2023-02-19T00:02:02.058Z,99558.16
2023-02-19T00:04:30.845Z,99548.50
2023-02-19T00:06:59.463Z,99554.75
2023-02-19T00:09:28.177Z,99560.56
2023-02-19T00:11:58.138Z,99552.13
2023-02-19T00:14:26.740Z,99553.75
2023-02-19T00:16:55.389Z,99553.94
2023-02-19T00:19:24.069Z,99544.47
2023-02-19T00:21:53.159Z,99547.28
2023-02-19T00:24:22.538Z,99547.88
2023-02-19T00:26:51.226Z,99548.09
2023-02-19T00:29:22.579Z,99550.69
2023-02-19T00:31:51.346Z,99545.47
2023-02-19T00:34:20.111Z,99543.84
2023-02-19T00:36:48.804Z,99542.44
2023-02-19T00:39:18.604Z,99533.19
2023-02-19T00:41:47.505Z,99538.63
2023-02-19T00:44:16.426Z,99536.78
2023-02-19T00:46:47.919Z,99546.47
2023-02-19T00:49:20.007Z,99543.84
2023-02-19T00:51:48.951Z,99549.25
2023-02-19T00:54:18.450Z,99547.44
2023-02-19T00:56:47.390Z,99553.06
2023-02-19T00:59:16.439Z,99546.84
2023-02-19T01:01:46.451Z,99555.47
2023-02-19T01:04:16.406Z,99560.50
2023-02-19T01:06:45.193Z,99541.03
2023-02-19T01:09:13.830Z,99538.44
2023-02-19T01:11:42.517Z,99536.44
2023-02-19T01:14:11.648Z,99525.00
2023-02-19T01:16:40.295Z,99527.81
2023-02-19T01:19:10.404Z,99514.16
2023-02-19T01:21:40.653Z,99518.00
2023-02-19T01:24:11.872Z,99511.38
2023-02-19T01:26:41.295Z,99510.59
2023-02-19T01:29:10.537Z,99514.81
2023-02-19T01:31:42.014Z,99518.25
2023-02-19T01:34:13.015Z,99506.16
2023-02-19T01:36:41.748Z,99513.28
2023-02-19T01:39:11.892Z,99496.53
2023-02-19T01:41:42.323Z,99496.56
2023-02-19T01:44:43.999Z,99493.94
2023-02-19T01:47:12.867Z,99494.38
2023-02-19T01:49:48.791Z,99489.53
2023-02-19T01:52:20.089Z,99485.09
2023-02-19T01:54:50.120Z,99486.91
2023-02-19T01:57:20.699Z,99496.56
2023-02-19T01:59:50.979Z,99492.53
2023-02-19T02:02:19.694Z,99485.50
2023-02-19T02:04:49.756Z,99488.72
2023-02-19T02:07:36.064Z,99483.88
2023-02-19T02:10:23.944Z,99484.91
2023-02-19T02:12:57.833Z,99476.66
2023-02-19T02:15:29.544Z,99478.25
2023-02-19T02:18:01.331Z,99492.97
2023-02-19T02:20:51.919Z,99480.88
2023-02-19T02:23:29.153Z,99487.31
2023-02-19T02:26:10.456Z,99475.03
2023-02-19T02:29:08.923Z,99486.72
2023-02-19T02:31:42.595Z,99487.50
2023-02-19T02:34:15.514Z,99483.47
2023-02-19T02:36:45.869Z,99470.41
2023-02-19T02:39:16.972Z,99464.97
2023-02-19T02:41:47.078Z,99465.16
2023-02-19T02:44:15.641Z,99467.78
2023-02-19T02:46:46.491Z,99464.97
2023-02-19T02:49:22.976Z,99459.94
2023-02-19T02:51:53.659Z,99452.09
2023-02-19T02:54:42.749Z,99463.31
2023-02-19T02:57:14.652Z,99455.88
2023-02-19T02:59:43.958Z,99455.06
2023-02-19T03:02:18.592Z,99457.09
2023-02-19T03:05:08.772Z,99455.44
2023-02-19T03:07:40.780Z,99452.66
2023-02-19T03:10:13.508Z,99455.25
2023-02-19T03:13:00.499Z,99453.44
2023-02-19T03:15:52.775Z,99452.03
2023-02-19T03:18:40.531Z,99453.66
2023-02-19T03:21:09.911Z,99447.22
2023-02-19T03:23:56.596Z,99453.25
2023-02-19T03:26:25.928Z,99456.47
2023-02-19T03:29:12.537Z,99456.47
2023-02-19T03:31:42.313Z,99449.84
2023-02-19T03:34:15.774Z,99459.06
2023-02-19T03:36:47.467Z,99455.25
2023-02-19T03:39:18.923Z,99461.88
2023-02-19T03:41:51.621Z,99455.22
2023-02-19T03:44:25.945Z,99464.09
2023-02-19T03:46:57.148Z,99461.88
2023-02-19T03:49:32.096Z,99466.69
2023-02-19T03:52:05.697Z,99466.84
2023-02-19T03:54:38.386Z,99472.91
2023-02-19T03:57:11.476Z,99472.47
2023-02-19T03:59:43.826Z,99463.22
2023-02-19T04:02:15.196Z,99468.44
2023-02-19T04:04:47.010Z,99478.31
2023-02-19T04:07:15.632Z,99474.47
2023-02-19T04:09:45.718Z,99485.50
2023-02-19T04:12:15.523Z,99488.13
2023-02-19T04:14:46.793Z,99490.94
2023-02-19T04:17:19.976Z,99490.13
2023-02-19T04:19:51.376Z,99497.75
2023-02-19T04:22:20.577Z,99496.16
2023-02-19T04:24:51.012Z,99498.59
2023-02-19T04:27:20.010Z,99504.19
2023-02-19T04:29:48.808Z,99498.59
2023-02-19T04:32:17.412Z,99499.56
2023-02-19T04:34:46.053Z,99494.16
2023-02-19T04:37:16.089Z,99497.34
2023-02-19T04:39:44.870Z,99503.81
2023-02-19T04:42:13.474Z,99522.69
2023-02-19T04:44:42.106Z,99512.44
2023-02-19T04:47:10.770Z,99517.88
2023-02-19T04:49:39.412Z,99520.25
2023-02-19T04:52:08.007Z,99519.44
2023-02-19T04:54:37.980Z,99525.25
2023-02-19T04:57:06.642Z,99534.53
2023-02-19T04:59:35.476Z,99533.09
2023-02-19T05:02:04.086Z,99541.47
2023-02-19T05:04:32.757Z,99539.06
2023-02-19T05:07:01.464Z,99542.53
2023-02-19T05:09:30.060Z,99536.09
2023-02-19T05:12:00.026Z,99540.31
2023-02-19T05:14:28.645Z,99533.28
2023-02-19T05:16:57.259Z,99530.88
2023-02-19T05:19:25.949Z,99535.91
2023-02-19T05:21:54.558Z,99536.69
2023-02-19T05:24:24.393Z,99547.59
2023-02-19T05:26:53.015Z,99544.75
2023-02-19T05:29:22.995Z,99549.78
2023-02-19T05:31:51.836Z,99538.94
2023-02-19T05:34:20.559Z,99530.09
2023-02-19T05:36:49.227Z,99531.09
2023-02-19T05:39:17.797Z,99531.72
2023-02-19T05:41:46.322Z,99539.91
2023-02-19T05:44:14.926Z,99545.16
2023-02-19T05:46:44.953Z,99546.75
2023-02-19T05:49:13.841Z,99548.78
2023-02-19T05:51:42.489Z,99552.00
2023-02-19T05:54:11.118Z,99552.38
2023-02-19T05:56:40.664Z,99550.75
2023-02-19T05:59:16.570Z,99553.38
2023-02-19T06:01:46.693Z,99555.16
2023-02-19T06:04:15.669Z,99557.34
2023-02-19T06:06:44.601Z,99560.16
2023-02-19T06:09:13.510Z,99559.72
2023-02-19T06:11:43.424Z,99569.38
2023-02-19T06:14:13.430Z,99573.97
2023-02-19T06:16:42.487Z,99582.81
2023-02-19T06:19:12.390Z,99582.56
2023-02-19T06:21:41.445Z,99592.78
2023-02-19T06:24:10.681Z,99604.59
2023-02-19T06:26:39.502Z,99600.38
2023-02-19T06:29:08.142Z,99609.41
2023-02-19T06:31:36.803Z,99625.13
2023-02-19T06:34:05.931Z,99628.13
2023-02-19T06:36:36.099Z,99630.50
2023-02-19T06:39:06.007Z,99633.28
2023-02-19T06:41:34.856Z,99634.09
2023-02-19T06:44:03.602Z,99629.25
2023-02-19T06:46:32.200Z,99632.84
2023-02-19T06:49:00.845Z,99638.31
2023-02-19T06:51:29.770Z,99636.06
2023-02-19T06:54:02.166Z,99636.97
2023-02-19T06:56:32.384Z,99638.00
2023-02-19T06:59:02.672Z,99636.22
2023-02-19T07:01:32.320Z,99638.69
2023-02-19T07:04:01.274Z,99644.34
2023-02-19T07:06:30.560Z,99644.41
2023-02-19T07:09:00.906Z,99654.47
2023-02-19T07:11:32.229Z,99654.47
2023-02-19T07:14:02.586Z,99664.16
2023-02-19T07:16:31.680Z,99667.41
2023-02-19T07:19:01.233Z,99658.56
2023-02-19T07:21:30.272Z,99661.38
2023-02-19T07:24:00.246Z,99668.66
2023-02-19T07:26:28.926Z,99684.31
2023-02-19T07:28:57.578Z,99682.69
2023-02-19T07:31:26.298Z,99682.25
2023-02-19T07:33:55.646Z,99687.28
2023-02-19T07:36:25.196Z,99685.91
2023-02-19T07:38:57.376Z,99675.28
2023-02-19T07:41:28.312Z,99681.94
2023-02-19T07:43:56.930Z,99677.47
2023-02-19T07:46:26.036Z,99686.09
2023-02-19T07:48:54.606Z,99675.28
2023-02-19T07:51:23.605Z,99683.75
2023-02-19T07:53:52.194Z,99680.56
2023-02-19T07:56:21.070Z,99675.59
2023-02-19T07:58:51.060Z,99686.06
2023-02-19T08:01:41.062Z,99681.25
2023-02-19T08:04:08.866Z,99679.47
2023-02-19T08:06:37.424Z,99680.88
2023-02-19T08:09:06.612Z,99679.28
2023-02-19T08:11:52.743Z,99685.09
2023-02-19T08:14:25.726Z,99674.47
2023-02-19T08:16:54.685Z,99685.78
2023-02-19T08:19:23.748Z,99683.97
2023-02-19T08:21:53.414Z,99690.59
2023-02-19T08:24:22.179Z,99697.91
2023-02-19T08:26:51.089Z,99703.94
2023-02-19T08:29:19.813Z,99727.88
2023-02-19T08:31:50.021Z,99728.69
2023-02-19T08:34:18.779Z,99715.56
2023-02-19T08:36:47.446Z,99742.00
2023-02-19T08:39:16.126Z,99746.22
2023-02-19T08:41:44.890Z,99752.88
2023-02-19T08:44:13.585Z,99744.97
2023-02-19T08:46:42.201Z,99749.88
2023-02-19T08:49:12.143Z,99747.19
2023-02-19T08:51:40.720Z,99745.75
2023-02-19T08:54:09.298Z,99750.34
2023-02-19T08:56:37.903Z,99754.50
2023-02-19T08:59:06.690Z,99753.28
2023-02-19T09:01:35.601Z,99766.28
2023-02-19T09:04:04.644Z,99758.25
2023-02-19T09:06:34.659Z,99753.78
2023-02-19T09:09:03.299Z,99768.84
2023-02-19T09:11:31.936Z,99774.91
2023-02-19T09:14:02.062Z,99777.50
2023-02-19T09:16:30.650Z,99786.16
2023-02-19T09:18:59.334Z,99788.75
2023-02-19T09:21:28.266Z,99786.91
2023-02-19T09:23:58.262Z,99796.00
2023-02-19T09:26:26.983Z,99796.78
2023-02-19T09:28:56.082Z,99800.22
2023-02-19T09:31:24.876Z,99802.59
2023-02-19T09:33:53.634Z,99808.88
2023-02-19T09:36:22.266Z,99794.56
2023-02-19T09:38:50.931Z,99803.47
2023-02-19T09:41:25.133Z,99790.00
2023-02-19T09:43:53.912Z,99790.66
2023-02-19T09:46:26.395Z,99799.19
2023-02-19T09:48:57.077Z,99794.19
2023-02-19T09:51:29.052Z,99810.75
2023-02-19T09:53:58.519Z,99814.78
2023-02-19T09:56:28.867Z,99811.00
2023-02-19T09:58:59.600Z,99811.41
2023-02-19T10:01:31.654Z,99819.25
2023-02-19T10:04:00.479Z,99816.63
2023-02-19T10:06:30.330Z,99811.00
2023-02-19T10:09:12.688Z,99799.41
2023-02-19T10:11:43.000Z,99795.13
2023-02-19T10:14:17.007Z,99793.03
2023-02-19T10:16:47.210Z,99793.03
2023-02-19T10:19:16.711Z,99789.03
2023-02-19T10:21:45.628Z,99791.13
2023-02-19T10:24:19.699Z,99800.00
2023-02-19T10:26:50.998Z,99798.84
2023-02-19T10:29:21.641Z,99795.84
2023-02-19T10:31:52.157Z,99805.13
2023-02-19T10:34:22.289Z,99817.03
2023-02-19T10:36:52.017Z,99810.78
2023-02-19T10:39:38.718Z,99814.00
2023-02-19T10:42:16.054Z,99803.94
2023-02-19T10:44:47.155Z,99823.47
2023-02-19T10:47:20.636Z,99817.59
2023-02-19T10:49:50.596Z,99820.78
2023-02-19T10:52:22.778Z,99834.56
2023-02-19T10:54:53.326Z,99834.84
2023-02-19T10:57:41.319Z,99843.16
2023-02-19T11:00:24.195Z,99838.38
2023-02-19T11:03:20.762Z,99833.78
2023-02-19T11:05:57.119Z,99824.25
2023-02-19T11:08:25.841Z,99836.19
2023-02-19T11:10:54.644Z,99824.13
2023-02-19T11:13:30.358Z,99821.16
2023-02-19T11:15:59.888Z,99821.94
2023-02-19T11:18:30.599Z,99821.75
2023-02-19T11:21:00.656Z,99829.03
2023-02-19T11:23:30.870Z,99819.97
2023-02-19T11:26:02.606Z,99833.88
2023-02-19T11:28:34.159Z,99822.41
2023-02-19T11:31:23.528Z,99824.16
2023-02-19T11:33:56.198Z,99828.41
2023-02-19T11:36:30.973Z,99833.28
2023-02-19T11:39:01.091Z,99825.81
2023-02-19T11:41:53.473Z,99824.22
2023-02-19T11:44:32.564Z,99823.81
2023-02-19T11:47:22.340Z,99823.19
2023-02-19T11:49:56.832Z,99827.63
2023-02-19T11:52:30.741Z,99827.03
2023-02-19T11:55:08.876Z,99836.91
2023-02-19T11:57:43.896Z,99841.16
2023-02-19T12:00:28.689Z,99843.16
2023-02-19T12:03:23.321Z,99853.06
2023-02-19T12:06:07.189Z,99847.63
2023-02-19T12:08:59.029Z,99850.25
2023-02-19T12:11:41.448Z,99852.28
2023-02-19T12:14:23.718Z,99858.13
2023-02-19T12:16:56.203Z,99857.72
2023-02-19T12:19:39.169Z,99851.63
2023-02-19T12:22:19.774Z,99834.44
2023-02-19T12:25:00.923Z,99830.44
2023-02-19T12:27:39.360Z,99835.03
2023-02-19T12:30:21.212Z,99833.44
2023-02-19T12:33:09.312Z,99830.81
2023-02-19T12:35:54.922Z,99835.88
2023-02-19T12:38:28.165Z,99828.03
2023-02-19T12:41:13.173Z,99840.94
2023-02-19T12:43:44.922Z,99833.63
2023-02-19T12:46:16.494Z,99848.97
2023-02-19T12:48:50.119Z,99845.13
2023-02-19T12:51:23.698Z,99845.91
2023-02-19T12:53:55.697Z,99845.91
2023-02-19T12:56:27.203Z,99820.75
2023-02-19T12:58:59.414Z,99841.88
2023-02-19T13:01:31.911Z,99832.00
2023-02-19T13:04:15.499Z,99833.25
2023-02-19T13:06:46.533Z,99833.63
2023-02-19T13:09:18.991Z,99818.16
2023-02-19T13:11:50.204Z,99820.19
2023-02-19T13:14:22.864Z,99828.28
2023-02-19T13:16:53.950Z,99829.28
2023-02-19T13:19:24.086Z,99829.22
2023-02-19T13:22:16.177Z,99825.78
2023-02-19T13:24:46.720Z,99820.16
2023-02-19T13:27:34.585Z,99831.41
2023-02-19T13:30:20.168Z,99823.13
2023-02-19T13:32:59.888Z,99839.25
2023-02-19T13:35:56.872Z,99835.00
2023-02-19T13:38:25.734Z,99836.59
2023-02-19T13:40:55.577Z,99847.56
2023-02-19T13:43:26.536Z,99827.66
2023-02-19T13:45:57.948Z,99826.66
2023-02-19T13:48:29.363Z,99826.28
2023-02-19T13:51:31.315Z,99825.84
2023-02-19T13:54:02.194Z,99816.53
2023-02-19T13:56:41.128Z,99820.78
2023-02-19T13:59:40.781Z,99811.13
2023-02-19T14:02:28.592Z,99806.88
2023-02-19T14:05:00.098Z,99816.50
2023-02-19T14:07:55.196Z,99816.94
2023-02-19T14:10:57.527Z,99810.09
2023-02-19T14:13:59.412Z,99811.31
2023-02-19T14:16:52.790Z,99818.31
2023-02-19T14:20:01.494Z,99819.72
2023-02-19T14:23:10.434Z,99818.13
2023-02-19T14:25:44.814Z,99816.94
2023-02-19T14:28:27.065Z,99814.09
2023-02-19T14:30:57.648Z,99822.56
2023-02-19T14:33:28.143Z,99829.03
2023-02-19T14:36:00.622Z,99826.22
2023-02-19T14:38:31.625Z,99840.09
2023-02-19T14:41:00.724Z,99837.94
2023-02-19T14:43:31.180Z,99838.53
2023-02-19T14:46:02.625Z,99834.31
2023-02-19T14:48:35.074Z,99835.50
2023-02-19T14:51:08.309Z,99834.28
2023-02-19T14:53:39.521Z,99841.50
2023-02-19T14:56:19.562Z,99854.00
2023-02-19T14:59:07.048Z,99859.28
2023-02-19T15:01:35.890Z,99854.44
2023-02-19T15:04:04.924Z,99851.22
2023-02-19T15:06:35.562Z,99859.81
2023-02-19T15:09:07.044Z,99855.22
2023-02-19T15:11:36.332Z,99863.88
2023-02-19T15:14:07.721Z,99868.69
2023-02-19T15:16:37.014Z,99882.38
2023-02-19T15:19:07.546Z,99886.00
2023-02-19T15:21:39.014Z,99890.44
2023-02-19T15:24:08.238Z,99888.00
2023-02-19T15:26:38.257Z,99894.25
2023-02-19T15:29:13.480Z,99898.47
2023-02-19T15:31:46.625Z,99891.81
2023-02-19T15:34:17.639Z,99906.00
2023-02-19T15:36:46.596Z,99896.41
2023-02-19T15:39:20.809Z,99895.16
2023-02-19T15:41:55.443Z,99904.38
2023-02-19T15:44:39.171Z,99905.00
2023-02-19T15:47:13.124Z,99902.56
2023-02-19T15:49:48.017Z,99907.00
2023-02-19T15:52:26.202Z,99902.22
2023-02-19T15:54:59.258Z,99888.06
2023-02-19T15:57:32.409Z,99890.25
2023-02-19T16:00:04.859Z,99895.72
2023-02-19T16:02:33.743Z,99889.84
2023-02-19T16:05:03.333Z,99894.06
2023-02-19T16:07:32.913Z,99901.91
2023-02-19T16:10:19.396Z,99892.41
2023-02-19T16:12:56.909Z,99899.16
2023-02-19T16:15:27.642Z,99900.78
2023-02-19T16:17:56.835Z,99911.75
2023-02-19T16:20:27.869Z,99906.72
2023-02-19T16:22:59.075Z,99905.16
2023-02-19T16:25:31.814Z,99916.84
2023-02-19T16:28:00.620Z,99925.50
2023-02-19T16:30:34.143Z,99918.47
2023-02-19T16:33:22.436Z,99919.63
2023-02-19T16:35:52.412Z,99916.41
2023-02-19T16:38:21.689Z,99922.44
2023-02-19T16:41:05.783Z,99919.22
2023-02-19T16:43:40.931Z,99909.16
2023-02-19T16:46:13.127Z,99911.94
2023-02-19T16:48:41.836Z,99910.25
2023-02-19T16:51:18.000Z,99909.28
2023-02-19T16:53:46.667Z,99902.59
2023-02-19T16:56:18.521Z,99910.75
2023-02-19T16:58:47.114Z,99909.28
2023-02-19T17:01:17.336Z,99918.66
2023-02-19T17:03:46.921Z,99918.84
2023-02-19T17:06:15.745Z,99920.09
2023-02-19T17:08:44.820Z,99925.06
2023-02-19T17:11:14.851Z,99929.31
2023-02-19T17:13:44.947Z,99927.69
2023-02-19T17:16:20.162Z,99932.72
2023-02-19T17:18:48.986Z,99935.34
2023-02-19T17:21:20.472Z,99936.50
2023-02-19T17:23:49.058Z,99942.56
2023-02-19T17:26:19.270Z,99945.00
2023-02-19T17:28:47.944Z,99950.75
2023-02-19T17:31:17.110Z,99955.47
2023-02-19T17:33:47.306Z,99955.28
2023-02-19T17:36:18.658Z,99969.38
2023-02-19T17:38:47.430Z,99968.41
2023-02-19T17:41:16.399Z,99977.31
2023-02-19T17:43:45.646Z,99982.53
2023-02-19T17:46:15.962Z,99983.69
2023-02-19T17:48:44.840Z,99987.75
2023-02-19T17:51:15.405Z,100001.06
2023-02-19T17:53:46.408Z,99998.22
2023-02-19T17:56:17.399Z,99994.16
2023-02-19T17:58:46.317Z,100006.25
2023-02-19T18:01:15.610Z,100007.03
2023-02-19T18:03:44.707Z,100010.81
2023-02-19T18:06:15.088Z,100017.66
2023-02-19T18:08:48.753Z,100025.06
2023-02-19T18:11:17.597Z,100031.28
2023-02-19T18:13:48.003Z,100045.16
2023-02-19T18:16:17.250Z,100040.72
2023-02-19T18:18:46.405Z,100049.56
2023-02-19T18:21:16.504Z,100053.53
2023-02-19T18:23:46.004Z,100053.53
2023-02-19T18:26:20.530Z,100060.41
2023-02-19T18:28:49.660Z,100051.91
2023-02-19T18:31:18.397Z,100058.94
2023-02-19T18:33:47.211Z,100051.28
2023-02-19T18:36:17.195Z,100060.13
2023-02-19T18:38:46.553Z,100053.91
2023-02-19T18:41:19.580Z,100057.03
2023-02-19T18:43:48.819Z,100065.53
2023-02-19T18:46:17.669Z,100059.84
2023-02-19T18:48:46.329Z,100065.00
2023-02-19T18:51:14.986Z,100061.44
2023-02-19T18:53:45.106Z,100061.63
2023-02-19T18:56:13.666Z,100060.22
2023-02-19T18:58:42.295Z,100064.78
2023-02-19T19:01:11.408Z,100066.41
2023-02-19T19:03:40.276Z,100063.53
2023-02-19T19:06:08.995Z,100065.63
2023-02-19T19:08:37.614Z,100062.72
2023-02-19T19:11:07.774Z,100066.69
2023-02-19T19:13:36.376Z,100078.94
2023-02-19T19:16:05.628Z,100074.53
2023-02-19T19:18:38.044Z,100076.34
2023-02-19T19:21:09.529Z,100084.34
2023-02-19T19:23:38.404Z,100097.13
2023-02-19T19:26:08.746Z,100102.34
2023-02-19T19:28:40.622Z,100100.53
2023-02-19T19:31:09.413Z,100097.13
2023-02-19T19:33:38.178Z,100104.34
2023-02-19T19:36:07.647Z,100107.63
2023-02-19T19:38:36.559Z,100109.56
2023-02-19T19:41:05.974Z,100103.06
2023-02-19T19:43:36.019Z,100107.63
2023-02-19T19:46:05.064Z,100107.00
2023-02-19T19:48:33.900Z,100108.63
2023-02-19T19:51:02.718Z,100123.31
2023-02-19T19:53:31.493Z,100111.41
2023-02-19T19:56:01.526Z,100116.44
2023-02-19T19:58:30.580Z,100124.47
2023-02-19T20:01:01.737Z,100112.59
2023-02-19T20:03:32.317Z,100112.75
2023-02-19T20:06:02.326Z,100113.94
2023-02-19T20:08:31.093Z,100117.34
2023-02-19T20:10:59.826Z,100111.78
2023-02-19T20:13:30.503Z,100115.72
2023-02-19T20:16:00.555Z,100114.56
2023-02-19T20:18:29.221Z,100109.16
2023-02-19T20:20:57.936Z,100107.72
2023-02-19T20:23:27.605Z,100109.03
2023-02-19T20:25:57.566Z,100101.56
2023-02-19T20:28:26.409Z,100105.44
2023-02-19T20:30:55.198Z,100111.22
2023-02-19T20:33:25.263Z,100110.41
2023-02-19T20:35:53.884Z,100112.19
2023-02-19T20:38:22.555Z,100110.84
2023-02-19T20:40:51.257Z,100116.63
2023-02-19T20:43:19.970Z,100123.66
2023-02-19T20:45:48.720Z,100122.44
2023-02-19T20:48:18.080Z,100113.81
2023-02-19T20:50:48.127Z,100116.78
2023-02-19T20:53:18.315Z,100115.63
2023-02-19T20:55:52.470Z,100111.38
2023-02-19T20:58:21.201Z,100118.41
2023-02-19T21:00:50.460Z,100114.00
2023-02-19T21:03:19.395Z,100113.66
2023-02-19T21:05:49.992Z,100116.88
2023-02-19T21:08:18.804Z,100119.84
2023-02-19T21:10:47.761Z,100111.84
2023-02-19T21:13:16.665Z,100113.66
2023-02-19T21:15:45.469Z,100116.25
2023-02-19T21:18:14.140Z,100116.63
2023-02-19T21:20:42.837Z,100120.84
2023-02-19T21:23:13.958Z,100126.06
2023-02-19T21:25:42.652Z,100112.38
2023-02-19T21:28:12.398Z,100125.59
2023-02-19T21:30:41.127Z,100118.41
2023-02-19T21:33:09.882Z,100109.13
2023-02-19T21:35:38.625Z,100112.38
2023-02-19T21:38:07.275Z,100114.34
2023-02-19T21:40:37.673Z,100124.97
2023-02-19T21:43:06.396Z,100118.31
2023-02-19T21:45:35.100Z,100123.53
2023-02-19T21:48:03.783Z,100118.31
2023-02-19T21:50:32.394Z,100111.44
2023-02-19T21:53:01.412Z,100095.22
2023-02-19T21:55:30.145Z,100105.66
2023-02-19T21:58:00.153Z,100102.69
2023-02-19T22:00:28.789Z,100095.66
2023-02-19T22:02:57.521Z,100100.44
2023-02-19T22:05:26.673Z,100099.78
2023-02-19T22:07:55.392Z,100102.41
2023-02-19T22:10:23.990Z,100100.44
2023-02-19T22:12:52.626Z,100104.03
2023-02-19T22:15:22.564Z,100109.72
2023-02-19T22:17:51.342Z,100107.91
2023-02-19T22:20:21.645Z,100109.53
2023-02-19T22:22:50.359Z,100111.00
2023-02-19T22:25:19.230Z,100101.59
2023-02-19T22:27:48.946Z,100118.53
2023-02-19T22:30:18.034Z,100118.34
2023-02-19T22:32:48.175Z,100130.25
2023-02-19T22:35:17.081Z,100127.81
2023-02-19T22:37:45.780Z,100128.00
2023-02-19T22:40:14.766Z,100132.75
2023-02-19T22:42:43.565Z,100131.09
2023-02-19T22:45:12.683Z,100126.91
2023-02-19T22:47:41.995Z,100126.06
2023-02-19T22:50:18.487Z,100127.53
2023-02-19T22:52:47.193Z,100135.53
2023-02-19T22:55:16.863Z,100126.72
2023-02-19T22:57:45.545Z,100133.72
2023-02-19T23:00:18.229Z,100130.47
2023-02-19T23:02:48.250Z,100131.94
2023-02-19T23:05:18.522Z,100136.97
2023-02-19T23:07:47.114Z,100145.78
2023-02-19T23:10:15.793Z,100141.72
2023-02-19T23:12:44.445Z,100149.72
2023-02-19T23:15:14.509Z,100150.75
2023-02-19T23:17:43.183Z,100147.31
2023-02-19T23:20:12.531Z,100149.72
2023-02-19T23:22:43.520Z,100149.72
2023-02-19T23:25:12.139Z,100151.38
2023-02-19T23:27:40.813Z,100148.13
2023-02-19T23:30:10.218Z,100154.31
2023-02-19T23:32:38.906Z,100141.91
2023-02-19T23:35:08.122Z,100153.34
2023-02-19T23:37:36.825Z,100149.63
2023-02-19T23:40:08.096Z,100151.59
2023-02-19T23:42:37.403Z,100151.13
2023-02-19T23:45:06.560Z,100153.91
2023-02-19T23:47:35.199Z,100146.22
2023-02-19T23:50:03.886Z,100151.97
2023-02-19T23:52:32.524Z,100153.78
2023-02-19T23:55:01.213Z,100149.03
2023-02-19T23:57:31.231Z,100148.56
2023-02-19T23:59:59.836Z,100157.69
